createdAt,value
2019-01-24T00:00:31.353Z,-4.10
2019-01-24T00:03:01.829Z,-4.10
2019-01-24T00:05:32.285Z,-4.10
2019-01-24T00:08:02.872Z,-4.10
2019-01-24T00:10:33.479Z,-4.10
2019-01-24T00:13:04.134Z,-4.10
2019-01-24T00:15:34.721Z,-4.10
2019-01-24T00:18:05.427Z,-4.20
2019-01-24T00:20:35.906Z,-4.20
2019-01-24T00:23:06.440Z,-4.20
2019-01-24T00:25:37.053Z,-4.20
2019-01-24T00:28:07.634Z,-4.20
2019-01-24T00:30:38.239Z,-4.20
2019-01-24T00:33:08.835Z,-4.30
2019-01-24T00:35:39.312Z,-4.20
2019-01-24T00:38:27.973Z,-4.30
2019-01-24T00:40:58.570Z,-4.30
2019-01-24T00:43:29.055Z,-4.30
2019-01-24T00:45:59.632Z,-4.30
2019-01-24T00:48:30.149Z,-4.30
2019-01-24T00:51:00.705Z,-4.20
2019-01-24T00:53:31.301Z,-4.30
2019-01-24T00:56:01.960Z,-4.30
2019-01-24T00:58:32.534Z,-4.30
2019-01-24T01:01:03.040Z,-4.30
2019-01-24T01:03:33.605Z,-4.30
2019-01-24T01:06:04.433Z,-4.30
2019-01-24T01:08:34.899Z,-4.30
2019-01-24T01:11:05.598Z,-4.30
2019-01-24T01:13:36.185Z,-4.30
2019-01-24T01:16:06.828Z,-4.30
2019-01-24T01:18:37.434Z,-4.30
2019-01-24T01:21:08.082Z,-4.30
2019-01-24T01:23:38.669Z,-4.30
2019-01-24T01:26:09.284Z,-4.30
2019-01-24T01:28:39.760Z,-4.30
2019-01-24T01:31:10.276Z,-4.30
2019-01-24T01:33:40.773Z,-4.40
2019-01-24T01:36:11.289Z,-4.40
2019-01-24T01:38:41.875Z,-4.40
2019-01-24T01:41:12.483Z,-4.40
2019-01-24T01:43:43.008Z,-4.40
2019-01-24T01:46:13.705Z,-4.40
2019-01-24T01:48:44.341Z,-4.30
2019-01-24T01:51:14.999Z,-4.30
2019-01-24T01:53:45.604Z,-4.30
2019-01-24T01:56:16.290Z,-4.30
2019-01-24T01:58:47.028Z,-4.40
2019-01-24T02:01:17.713Z,-4.40
2019-01-24T02:03:48.346Z,-4.40
2019-01-24T02:06:18.985Z,-4.40
2019-01-24T02:08:49.633Z,-4.40
2019-01-24T02:11:20.278Z,-4.40
2019-01-24T02:13:50.955Z,-4.40
2019-01-24T02:16:21.551Z,-4.40
2019-01-24T02:18:52.187Z,-4.40
2019-01-24T02:21:22.834Z,-4.50
2019-01-24T02:23:53.470Z,-4.50
2019-01-24T02:26:24.106Z,-4.50
2019-01-24T02:28:54.564Z,-4.50
2019-01-24T02:31:25.110Z,-4.40
2019-01-24T02:33:55.755Z,-4.40
2019-01-24T02:36:26.412Z,-4.40
2019-01-24T02:38:57.058Z,-4.40
2019-01-24T02:41:27.685Z,-4.40
2019-01-24T02:43:58.314Z,-4.40
2019-01-24T02:46:28.768Z,-4.40
2019-01-24T02:48:59.244Z,-4.30
2019-01-24T02:51:29.892Z,-4.40
2019-01-24T02:54:00.526Z,-4.40
2019-01-24T02:56:31.212Z,-4.40
2019-01-24T02:59:01.858Z,-4.40
2019-01-24T03:01:32.646Z,-4.50
2019-01-24T03:04:03.262Z,-4.50
2019-01-24T03:06:33.899Z,-4.40
2019-01-24T03:09:06.147Z,-4.40
2019-01-24T03:11:36.802Z,-4.40
2019-01-24T03:14:07.430Z,-4.40
2019-01-24T03:16:38.054Z,-4.40
2019-01-24T03:19:08.692Z,-4.40
2019-01-24T03:21:39.326Z,-4.40
2019-01-24T03:24:09.993Z,-4.40
2019-01-24T03:26:40.479Z,-4.30
2019-01-24T03:29:11.095Z,-4.30
2019-01-24T03:31:41.743Z,-4.30
2019-01-24T03:34:12.409Z,-4.30
2019-01-24T03:36:43.005Z,-4.30
2019-01-24T03:39:13.681Z,-4.30
2019-01-24T03:41:44.249Z,-4.30
2019-01-24T03:44:14.904Z,-4.30
2019-01-24T03:46:45.529Z,-4.40
2019-01-24T03:49:16.205Z,-4.40
2019-01-24T03:51:46.834Z,-4.40
2019-01-24T03:54:17.499Z,-4.40
2019-01-24T03:56:48.105Z,-4.40
2019-01-24T03:59:18.762Z,-4.40
2019-01-24T04:01:49.398Z,-4.40
2019-01-24T04:04:20.054Z,-4.40
2019-01-24T04:06:50.691Z,-4.50
2019-01-24T04:09:21.338Z,-4.50
2019-01-24T04:11:52.012Z,-4.50
2019-01-24T04:14:22.650Z,-4.50
2019-01-24T04:16:53.326Z,-4.50
2019-01-24T04:19:23.962Z,-4.50
2019-01-24T04:21:54.559Z,-4.50
2019-01-24T04:24:25.175Z,-4.50
2019-01-24T04:26:55.731Z,-4.50
2019-01-24T04:29:26.380Z,-4.50
2019-01-24T04:31:57.029Z,-4.50
2019-01-24T04:34:27.670Z,-4.50
2019-01-24T04:36:58.358Z,-4.50
2019-01-24T04:39:28.963Z,-4.40
2019-01-24T04:41:59.661Z,-4.50
2019-01-24T04:44:30.317Z,-4.50
2019-01-24T04:47:01.131Z,-4.50
2019-01-24T04:49:31.801Z,-4.50
2019-01-24T04:52:02.769Z,-4.50
2019-01-24T04:54:33.494Z,-4.40
2019-01-24T04:57:04.149Z,-4.50
2019-01-24T04:59:34.794Z,-4.50
2019-01-24T05:02:05.492Z,-4.50
2019-01-24T05:04:36.086Z,-4.50
2019-01-24T05:07:06.945Z,-4.50
2019-01-24T05:09:37.589Z,-4.50
2019-01-24T05:12:08.176Z,-4.50
2019-01-24T05:14:38.863Z,-4.50
2019-01-24T05:17:09.527Z,-4.50
2019-01-24T05:19:40.196Z,-4.50
2019-01-24T05:22:10.791Z,-4.50
2019-01-24T05:24:41.486Z,-4.50
2019-01-24T05:27:12.004Z,-4.50
2019-01-24T05:29:42.649Z,-4.50
2019-01-24T05:32:13.296Z,-4.50
2019-01-24T05:34:44.024Z,-4.40
2019-01-24T05:37:14.630Z,-4.40
2019-01-24T05:39:45.295Z,-4.40
2019-01-24T05:42:15.923Z,-4.50
2019-01-24T05:44:46.578Z,-4.50
2019-01-24T05:47:17.185Z,-4.50
2019-01-24T05:49:47.871Z,-4.50
2019-01-24T05:52:19.718Z,-4.60
2019-01-24T05:54:50.842Z,-4.50
2019-01-24T05:57:21.492Z,-4.40
2019-01-24T05:59:52.186Z,-4.40
2019-01-24T06:02:22.823Z,-4.50
2019-01-24T06:04:53.509Z,-4.50
2019-01-24T06:07:24.145Z,-4.50
2019-01-24T06:09:54.802Z,-4.50
2019-01-24T06:12:25.383Z,-4.50
2019-01-24T06:14:56.046Z,-4.40
2019-01-24T06:17:26.731Z,-4.40
2019-01-24T06:19:57.397Z,-4.40
2019-01-24T06:22:28.003Z,-4.40
2019-01-24T06:24:58.750Z,-4.50
2019-01-24T06:27:29.336Z,-4.50
2019-01-24T06:29:59.961Z,-4.50
2019-01-24T06:32:30.611Z,-4.40
2019-01-24T06:35:01.312Z,-4.40
2019-01-24T06:37:31.952Z,-4.40
2019-01-24T06:40:02.648Z,-4.40
2019-01-24T06:42:33.244Z,-4.40
2019-01-24T06:45:03.950Z,-4.40
2019-01-24T06:47:34.597Z,-4.50
2019-01-24T06:50:05.934Z,-4.50
2019-01-24T06:52:36.580Z,-4.50
2019-01-24T06:55:07.546Z,-4.50
2019-01-24T06:57:38.242Z,-4.50
2019-01-24T07:00:12.442Z,-4.50
2019-01-24T07:02:43.109Z,-4.50
2019-01-24T07:05:13.784Z,-4.50
2019-01-24T07:07:44.508Z,-4.50
2019-01-24T07:10:16.798Z,-4.40
2019-01-24T07:12:47.493Z,-4.40
2019-01-24T07:15:22.169Z,-4.50
2019-01-24T07:17:52.766Z,-4.60
2019-01-24T07:20:23.462Z,-4.60
2019-01-24T07:22:54.028Z,-4.60
2019-01-24T07:25:26.144Z,-4.60
2019-01-24T07:27:56.802Z,-4.60
2019-01-24T07:30:27.307Z,-4.50
2019-01-24T07:32:58.023Z,-4.50
2019-01-24T07:35:28.690Z,-4.50
2019-01-24T07:37:59.336Z,-4.50
2019-01-24T07:40:29.915Z,-4.50
2019-01-24T07:43:00.579Z,-4.50
2019-01-24T07:45:36.927Z,-4.50
2019-01-24T07:48:07.513Z,-4.40
2019-01-24T07:50:38.098Z,-4.40
2019-01-24T07:53:08.795Z,-4.40
2019-01-24T07:55:39.432Z,-4.40
2019-01-24T07:58:10.049Z,-4.30
2019-01-24T08:00:40.675Z,-4.30
2019-01-24T08:03:11.380Z,-4.20
2019-01-24T08:05:42.038Z,-4.10
2019-01-24T08:08:12.673Z,-4.10
2019-01-24T08:10:44.010Z,-4.10
2019-01-24T08:13:14.747Z,-4.20
2019-01-24T08:15:45.793Z,-4.20
2019-01-24T08:18:16.449Z,-4.30
2019-01-24T08:20:47.028Z,-4.30
2019-01-24T08:23:17.532Z,-4.30
2019-01-24T08:25:48.147Z,-4.20
2019-01-24T08:28:18.754Z,-4.10
2019-01-24T08:30:49.351Z,-4.10
2019-01-24T08:33:20.027Z,-4.10
2019-01-24T08:35:50.703Z,-4.00
2019-01-24T08:38:21.369Z,-4.00
2019-01-24T08:40:52.059Z,-3.90
2019-01-24T08:43:22.642Z,-3.90
2019-01-24T08:45:53.288Z,-4.00
2019-01-24T08:48:23.933Z,-3.90
2019-01-24T08:50:54.721Z,-4.00
2019-01-24T08:53:25.397Z,-4.00
2019-01-24T08:55:56.013Z,-4.00
2019-01-24T08:58:26.629Z,-3.90
2019-01-24T09:00:57.266Z,-4.00
2019-01-24T09:03:27.922Z,-4.10
2019-01-24T09:05:58.588Z,-4.00
2019-01-24T09:08:29.218Z,-3.90
2019-01-24T09:10:59.871Z,-3.80
2019-01-24T09:13:30.498Z,-3.80
2019-01-24T09:16:01.154Z,-3.80
2019-01-24T09:18:31.820Z,-3.70
2019-01-24T09:21:02.506Z,-3.70
2019-01-24T09:23:33.142Z,-3.70
2019-01-24T09:26:03.804Z,-3.70
2019-01-24T09:28:34.465Z,-3.60
2019-01-24T09:31:05.091Z,-3.70
2019-01-24T09:33:35.667Z,-3.80
2019-01-24T09:36:06.315Z,-3.80
2019-01-24T09:38:37.090Z,-3.80
2019-01-24T09:41:07.796Z,-3.70
2019-01-24T09:43:38.353Z,-3.60
2019-01-24T09:46:09.049Z,-3.50
2019-01-24T09:48:39.558Z,-3.40
2019-01-24T09:51:10.001Z,-3.40
2019-01-24T09:53:40.429Z,-3.50
2019-01-24T09:56:11.065Z,-3.50
2019-01-24T09:58:41.620Z,-3.50
2019-01-24T10:01:12.237Z,-3.40
2019-01-24T10:03:42.723Z,-3.40
2019-01-24T10:06:13.210Z,-3.30
2019-01-24T10:08:43.796Z,-3.40
2019-01-24T10:11:14.416Z,-3.40
2019-01-24T10:13:45.008Z,-3.40
2019-01-24T10:16:15.599Z,-3.40
2019-01-24T10:18:46.092Z,-3.30
2019-01-24T10:21:16.669Z,-3.40
2019-01-24T10:23:47.136Z,-3.40
2019-01-24T10:26:17.591Z,-3.30
2019-01-24T10:28:48.117Z,-3.30
2019-01-24T10:31:18.613Z,-3.30
2019-01-24T10:33:49.169Z,-3.30
2019-01-24T10:36:19.796Z,-3.20
2019-01-24T10:38:50.376Z,-3.20
2019-01-24T10:41:20.929Z,-3.10
2019-01-24T10:43:51.496Z,-3.00
2019-01-24T10:46:22.090Z,-3.00
2019-01-24T10:48:52.698Z,-3.00
2019-01-24T10:51:23.164Z,-3.00
2019-01-24T10:53:53.622Z,-3.20
2019-01-24T10:56:24.068Z,-3.10
2019-01-24T10:58:54.643Z,-3.10
2019-01-24T11:01:25.201Z,-3.00
2019-01-24T11:03:55.729Z,-3.00
2019-01-24T11:06:26.293Z,-2.90
2019-01-24T11:08:56.890Z,-2.80
2019-01-24T11:11:27.525Z,-2.70
2019-01-24T11:13:58.193Z,-2.70
2019-01-24T11:16:28.798Z,-2.70
2019-01-24T11:18:59.455Z,-2.60
2019-01-24T11:21:30.111Z,-2.30
2019-01-24T11:24:00.737Z,-2.00
2019-01-24T11:26:31.314Z,-1.70
2019-01-24T11:29:02.006Z,-1.50
2019-01-24T11:31:32.656Z,-1.40
2019-01-24T11:34:03.322Z,-1.40
2019-01-24T11:36:33.978Z,-1.30
2019-01-24T11:39:05.865Z,-1.40
2019-01-24T11:41:36.492Z,-1.60
2019-01-24T11:44:07.087Z,-1.50
2019-01-24T11:46:37.713Z,-1.30
2019-01-24T11:49:08.409Z,-1.00
2019-01-24T11:51:39.076Z,-1.00
2019-01-24T11:54:09.653Z,-1.30
2019-01-24T11:56:40.309Z,-1.50
2019-01-24T11:59:10.824Z,-1.70
2019-01-24T12:01:41.480Z,-1.80
2019-01-24T12:04:12.118Z,-2.10
2019-01-24T12:06:42.756Z,-2.30
2019-01-24T12:09:13.409Z,-2.40
2019-01-24T12:11:43.907Z,-2.60
2019-01-24T12:14:14.541Z,-2.80
2019-01-24T12:16:45.148Z,-2.80
2019-01-24T12:19:15.826Z,-2.90
2019-01-24T12:21:46.495Z,-2.90
2019-01-24T12:24:17.136Z,-2.90
2019-01-24T12:26:47.764Z,-2.80
2019-01-24T12:29:18.414Z,-2.70
2019-01-24T12:31:48.935Z,-2.70
2019-01-24T12:34:20.451Z,-2.70
2019-01-24T12:36:51.117Z,-2.60
2019-01-24T12:39:21.782Z,-2.40
2019-01-24T12:41:52.410Z,-2.40
2019-01-24T12:44:23.068Z,-2.40
2019-01-24T12:46:53.672Z,-2.50
2019-01-24T12:49:24.368Z,-2.40
2019-01-24T12:51:55.024Z,-2.50
2019-01-24T12:54:25.729Z,-2.60
2019-01-24T12:56:56.357Z,-2.50
2019-01-24T12:59:26.993Z,-2.40
2019-01-24T13:01:57.629Z,-2.60
2019-01-24T13:04:28.296Z,-2.70
2019-01-24T13:06:58.952Z,-2.70
2019-01-24T13:09:29.618Z,-2.80
2019-01-24T13:12:00.274Z,-2.80
2019-01-24T13:14:30.750Z,-2.70
2019-01-24T13:17:01.388Z,-2.70
2019-01-24T13:19:31.994Z,-2.80
2019-01-24T13:22:02.619Z,-2.80
2019-01-24T13:24:33.219Z,-2.90
2019-01-24T13:27:03.923Z,-2.80
2019-01-24T13:29:34.558Z,-2.80
2019-01-24T13:32:05.115Z,-2.70
2019-01-24T13:34:35.773Z,-2.70
2019-01-24T13:37:06.473Z,-2.80
2019-01-24T13:39:37.103Z,-2.90
2019-01-24T13:42:07.839Z,-3.00
2019-01-24T13:44:38.446Z,-3.20
2019-01-24T13:47:09.131Z,-3.20
2019-01-24T13:49:39.739Z,-3.40
2019-01-24T13:52:10.386Z,-3.40
2019-01-24T13:54:41.779Z,-3.40
2019-01-24T13:57:12.428Z,-3.40
2019-01-24T13:59:42.953Z,-3.40
2019-01-24T14:02:13.620Z,-3.40
2019-01-24T14:04:46.875Z,-3.30
2019-01-24T14:07:17.552Z,-3.30
2019-01-24T14:09:48.179Z,-3.20
2019-01-24T14:12:18.834Z,-3.20
2019-01-24T14:14:49.380Z,-3.10
2019-01-24T14:17:20.036Z,-3.10
2019-01-24T14:19:50.843Z,-3.00
2019-01-24T14:22:21.449Z,-3.00
2019-01-24T14:24:52.127Z,-3.00
2019-01-24T14:27:22.763Z,-3.00
2019-01-24T14:29:53.431Z,-3.00
2019-01-24T14:32:24.024Z,-2.90
2019-01-24T14:34:54.750Z,-3.00
2019-01-24T14:37:25.256Z,-3.10
2019-01-24T14:39:55.852Z,-3.10
2019-01-24T14:42:26.491Z,-3.00
2019-01-24T14:44:57.197Z,-3.00
2019-01-24T14:47:27.841Z,-3.00
2019-01-24T14:49:58.527Z,-3.00
2019-01-24T14:52:29.023Z,-3.00
2019-01-24T14:54:59.660Z,-3.10
2019-01-24T14:57:30.246Z,-3.10
2019-01-24T15:00:00.812Z,-3.10
2019-01-24T15:02:31.458Z,-3.10
2019-01-24T15:05:02.125Z,-3.10
2019-01-24T15:07:32.740Z,-3.10
2019-01-24T15:10:03.467Z,-3.10
2019-01-24T15:12:34.108Z,-3.10
2019-01-24T15:15:05.849Z,-3.10
2019-01-24T15:17:36.457Z,-3.10
2019-01-24T15:20:07.922Z,-3.20
2019-01-24T15:22:38.568Z,-3.20
2019-01-24T15:25:10.085Z,-3.30
2019-01-24T15:27:40.731Z,-3.30
2019-01-24T15:30:14.148Z,-3.40
2019-01-24T15:32:44.804Z,-3.40
2019-01-24T15:35:15.501Z,-3.40
2019-01-24T15:37:46.117Z,-3.40
2019-01-24T15:40:22.184Z,-3.50
2019-01-24T15:42:52.790Z,-3.40
2019-01-24T15:45:23.436Z,-3.50
2019-01-24T15:47:54.044Z,-3.50
2019-01-24T15:50:24.691Z,-3.50
2019-01-24T15:52:55.344Z,-3.60
2019-01-24T15:55:26.023Z,-3.70
2019-01-24T15:57:56.628Z,-3.60
2019-01-24T16:00:31.565Z,-3.70
2019-01-24T16:03:02.166Z,-3.80
2019-01-24T16:05:32.837Z,-3.80
2019-01-24T16:08:03.466Z,-3.80
2019-01-24T16:10:34.120Z,-3.80
2019-01-24T16:13:04.802Z,-3.80
2019-01-24T16:15:36.605Z,-3.80
2019-01-24T16:18:09.300Z,-3.80
2019-01-24T16:20:39.966Z,-3.80
2019-01-24T16:23:10.582Z,-3.80
2019-01-24T16:25:41.199Z,-3.90
2019-01-24T16:28:11.814Z,-3.90
2019-01-24T16:30:42.490Z,-3.90
2019-01-24T16:33:13.117Z,-4.00
2019-01-24T16:35:43.753Z,-4.00
2019-01-24T16:38:14.389Z,-4.00
2019-01-24T16:40:45.065Z,-4.00
2019-01-24T16:43:15.681Z,-4.00
2019-01-24T16:45:46.318Z,-3.90
2019-01-24T16:48:17.004Z,-3.90
2019-01-24T16:50:47.620Z,-3.90
2019-01-24T16:53:18.288Z,-3.90
2019-01-24T16:55:48.915Z,-4.00
2019-01-24T16:58:19.450Z,-4.00
2019-01-24T17:01:03.540Z,-4.00
2019-01-24T17:03:34.145Z,-4.00
2019-01-24T17:06:04.612Z,-4.00
2019-01-24T17:08:35.037Z,-4.00
2019-01-24T17:11:05.583Z,-4.00
2019-01-24T17:13:36.102Z,-4.00
2019-01-24T17:16:06.697Z,-3.90
2019-01-24T17:18:37.292Z,-4.00
2019-01-24T17:21:07.791Z,-4.00
2019-01-24T17:23:38.355Z,-4.00
2019-01-24T17:26:08.811Z,-4.00
2019-01-24T17:28:39.407Z,-4.00
2019-01-24T17:31:09.995Z,-3.90
2019-01-24T17:33:40.559Z,-4.00
2019-01-24T17:36:11.157Z,-4.00
2019-01-24T17:38:41.713Z,-4.00
2019-01-24T17:41:12.230Z,-4.00
2019-01-24T17:43:42.865Z,-4.00
2019-01-24T17:46:13.352Z,-4.00
2019-01-24T17:48:43.818Z,-4.00
2019-01-24T17:51:15.642Z,-3.90
2019-01-24T17:53:46.361Z,-4.00
2019-01-24T17:56:16.938Z,-4.00
2019-01-24T17:58:48.834Z,-4.10
2019-01-24T18:01:19.341Z,-4.00
2019-01-24T18:03:49.908Z,-4.00
2019-01-24T18:06:20.603Z,-4.00
2019-01-24T18:08:51.169Z,-4.00
2019-01-24T18:11:21.806Z,-3.90
2019-01-24T18:13:52.405Z,-3.90
2019-01-24T18:16:22.969Z,-4.00
2019-01-24T18:18:53.666Z,-4.00
2019-01-24T18:21:24.301Z,-3.90
2019-01-24T18:23:54.881Z,-3.90
2019-01-24T18:26:25.535Z,-4.00
2019-01-24T18:28:56.141Z,-4.00
2019-01-24T18:31:26.677Z,-4.00
2019-01-24T18:33:57.305Z,-4.00
2019-01-24T18:36:27.871Z,-4.00
2019-01-24T18:38:58.367Z,-4.00
2019-01-24T18:41:28.933Z,-4.10
2019-01-24T18:43:59.422Z,-4.00
2019-01-24T18:46:29.945Z,-4.00
2019-01-24T18:49:00.534Z,-4.00
2019-01-24T18:51:31.138Z,-4.00
2019-01-24T18:54:01.654Z,-4.00
2019-01-24T18:56:32.241Z,-4.00
2019-01-24T18:59:02.919Z,-4.10
2019-01-24T19:01:33.614Z,-4.00
2019-01-24T19:04:04.291Z,-4.00
2019-01-24T19:06:34.946Z,-4.00
2019-01-24T19:09:08.714Z,-4.00
2019-01-24T19:11:39.372Z,-4.00
2019-01-24T19:14:10.028Z,-4.00
2019-01-24T19:16:40.683Z,-4.00
2019-01-24T19:19:11.339Z,-4.10
2019-01-24T19:21:43.090Z,-4.10
2019-01-24T19:24:13.846Z,-4.20
2019-01-24T19:26:44.489Z,-4.20
2019-01-24T19:29:15.145Z,-4.20
2019-01-24T19:31:45.813Z,-4.20
2019-01-24T19:34:16.418Z,-4.20
2019-01-24T19:36:47.095Z,-4.10
2019-01-24T19:39:17.720Z,-4.20
2019-01-24T19:41:48.407Z,-4.20
2019-01-24T19:44:19.083Z,-4.20
2019-01-24T19:46:49.760Z,-4.10
2019-01-24T19:49:20.466Z,-4.10
2019-01-24T19:51:51.112Z,-4.20
2019-01-24T19:54:21.720Z,-4.20
2019-01-24T19:56:52.388Z,-4.20
2019-01-24T19:59:23.011Z,-4.20
2019-01-24T20:01:53.669Z,-4.30
2019-01-24T20:04:24.297Z,-4.30
2019-01-24T20:06:54.961Z,-4.30
2019-01-24T20:09:25.627Z,-4.30
2019-01-24T20:11:56.243Z,-4.30
2019-01-24T20:14:26.900Z,-4.40
2019-01-24T20:16:57.476Z,-4.40
2019-01-24T20:19:28.232Z,-4.30
2019-01-24T20:21:58.839Z,-4.30
2019-01-24T20:24:29.527Z,-4.30
2019-01-24T20:27:00.186Z,-4.30
2019-01-24T20:29:30.858Z,-4.30
2019-01-24T20:32:01.455Z,-4.40
2019-01-24T20:34:32.131Z,-4.40
2019-01-24T20:37:02.757Z,-4.40
2019-01-24T20:39:33.633Z,-4.40
2019-01-24T20:42:04.320Z,-4.40
2019-01-24T20:44:34.877Z,-4.40
2019-01-24T20:47:05.552Z,-4.40
2019-01-24T20:49:36.232Z,-4.30
2019-01-24T20:52:06.876Z,-4.30
2019-01-24T20:54:37.611Z,-4.30
2019-01-24T20:57:08.260Z,-4.30
2019-01-24T20:59:38.924Z,-4.30
2019-01-24T21:02:09.564Z,-4.40
2019-01-24T21:04:40.207Z,-4.40
2019-01-24T21:07:10.834Z,-4.40
2019-01-24T21:09:41.520Z,-4.40
2019-01-24T21:12:12.156Z,-4.50
2019-01-24T21:14:42.812Z,-4.60
2019-01-24T21:17:13.460Z,-4.70
2019-01-24T21:19:43.947Z,-4.60
2019-01-24T21:22:14.486Z,-4.60
2019-01-24T21:24:45.118Z,-4.60
2019-01-24T21:27:15.597Z,-4.60
2019-01-24T21:29:46.127Z,-4.50
2019-01-24T21:32:16.727Z,-4.50
2019-01-24T21:34:47.385Z,-4.40
2019-01-24T21:37:17.851Z,-4.50
2019-01-24T21:39:48.426Z,-4.40
2019-01-24T21:42:19.033Z,-4.40
2019-01-24T21:44:49.600Z,-4.40
2019-01-24T21:47:20.186Z,-4.40
2019-01-24T21:49:50.842Z,-4.40
2019-01-24T21:52:21.428Z,-4.30
2019-01-24T21:54:51.906Z,-4.30
2019-01-24T21:57:27.345Z,-4.20
2019-01-24T21:59:57.868Z,-4.20
2019-01-24T22:02:28.350Z,-4.10
2019-01-24T22:05:00.252Z,-4.10
2019-01-24T22:07:30.859Z,-4.20
2019-01-24T22:10:01.425Z,-4.20
2019-01-24T22:12:31.971Z,-4.20
2019-01-24T22:15:02.368Z,-4.20
2019-01-24T22:17:33.058Z,-4.20
2019-01-24T22:20:03.651Z,-4.20
2019-01-24T22:22:34.237Z,-4.20
2019-01-24T22:25:07.964Z,-4.10
2019-01-24T22:27:38.569Z,-4.10
2019-01-24T22:30:13.227Z,-4.10
2019-01-24T22:32:43.713Z,-4.10
2019-01-24T22:35:14.249Z,-4.10
2019-01-24T22:37:44.856Z,-4.10
2019-01-24T22:40:15.432Z,-4.20
2019-01-24T22:42:46.048Z,-4.20
2019-01-24T22:45:19.371Z,-4.10
2019-01-24T22:47:50.012Z,-4.10
2019-01-24T22:50:20.512Z,-4.10
2019-01-24T22:52:51.088Z,-4.10
2019-01-24T22:55:21.722Z,-4.10
2019-01-24T22:57:52.329Z,-4.10
2019-01-24T23:00:55.402Z,-4.20
2019-01-24T23:03:35.720Z,-4.20
2019-01-24T23:06:06.196Z,-4.20
2019-01-24T23:08:36.793Z,-4.20
2019-01-24T23:11:07.359Z,-4.20
2019-01-24T23:13:37.866Z,-4.10
2019-01-24T23:16:08.332Z,-4.10
2019-01-24T23:18:38.919Z,-4.10
2019-01-24T23:21:09.494Z,-4.10
2019-01-24T23:23:40.151Z,-4.00
2019-01-24T23:26:10.777Z,-4.10
2019-01-24T23:28:41.413Z,-4.10
2019-01-24T23:31:12.000Z,-4.10
2019-01-24T23:33:42.627Z,-4.20
2019-01-24T23:36:13.242Z,-4.20
2019-01-24T23:38:43.869Z,-4.10
2019-01-24T23:41:14.335Z,-4.10
2019-01-24T23:43:44.831Z,-4.10
2019-01-24T23:46:15.288Z,-4.10
2019-01-24T23:48:45.806Z,-4.20
2019-01-24T23:51:16.336Z,-4.20
2019-01-24T23:53:46.789Z,-4.20
2019-01-24T23:56:17.374Z,-4.30
2019-01-24T23:58:47.959Z,-4.30
